sensor_id;sensor_type;location;lat;lon;timestamp;temperature;humidity
44431;DHT22;30135;47.866;-4.222;2023-06-22T00:00:55;18.40;92.00
44431;DHT22;30135;47.866;-4.222;2023-06-22T00:03:23;18.40;92.10
44431;DHT22;30135;47.866;-4.222;2023-06-22T00:05:50;18.40;92.10
44431;DHT22;30135;47.866;-4.222;2023-06-22T00:08:18;18.40;92.10
44431;DHT22;30135;47.866;-4.222;2023-06-22T00:10:45;18.40;92.20
44431;DHT22;30135;47.866;-4.222;2023-06-22T00:13:13;18.30;92.20
44431;DHT22;30135;47.866;-4.222;2023-06-22T00:15:41;18.30;92.20
44431;DHT22;30135;47.866;-4.222;2023-06-22T00:18:08;18.30;92.30
44431;DHT22;30135;47.866;-4.222;2023-06-22T00:20:36;18.30;92.30
44431;DHT22;30135;47.866;-4.222;2023-06-22T00:23:06;18.30;92.40
44431;DHT22;30135;47.866;-4.222;2023-06-22T00:25:40;18.20;92.30
44431;DHT22;30135;47.866;-4.222;2023-06-22T00:28:06;18.30;92.40
44431;DHT22;30135;47.866;-4.222;2023-06-22T00:30:33;18.20;92.40
44431;DHT22;30135;47.866;-4.222;2023-06-22T00:33:00;18.20;92.50
44431;DHT22;30135;47.866;-4.222;2023-06-22T00:35:27;18.20;92.50
44431;DHT22;30135;47.866;-4.222;2023-06-22T00:37:57;18.20;92.50
44431;DHT22;30135;47.866;-4.222;2023-06-22T00:40:27;18.20;92.50
44431;DHT22;30135;47.866;-4.222;2023-06-22T00:42:54;18.20;92.50
44431;DHT22;30135;47.866;-4.222;2023-06-22T00:45:21;18.20;92.50
44431;DHT22;30135;47.866;-4.222;2023-06-22T00:47:52;18.20;92.50
44431;DHT22;30135;47.866;-4.222;2023-06-22T00:50:20;18.20;92.50
44431;DHT22;30135;47.866;-4.222;2023-06-22T00:52:56;18.20;92.50
44431;DHT22;30135;47.866;-4.222;2023-06-22T00:55:26;18.20;92.50
44431;DHT22;30135;47.866;-4.222;2023-06-22T00:57:53;18.20;92.50
44431;DHT22;30135;47.866;-4.222;2023-06-22T01:00:24;18.20;92.50
44431;DHT22;30135;47.866;-4.222;2023-06-22T01:02:53;18.20;92.50
44431;DHT22;30135;47.866;-4.222;2023-06-22T01:05:21;18.20;92.50
44431;DHT22;30135;47.866;-4.222;2023-06-22T01:11:18;18.10;92.50
44431;DHT22;30135;47.866;-4.222;2023-06-22T01:14:03;18.10;92.50
44431;DHT22;30135;47.866;-4.222;2023-06-22T01:16:31;18.10;92.50
44431;DHT22;30135;47.866;-4.222;2023-06-22T01:19:05;18.10;92.50
44431;DHT22;30135;47.866;-4.222;2023-06-22T01:21:41;18.10;92.50
44431;DHT22;30135;47.866;-4.222;2023-06-22T01:24:17;18.00;92.50
44431;DHT22;30135;47.866;-4.222;2023-06-22T01:30:01;18.00;92.50
44431;DHT22;30135;47.866;-4.222;2023-06-22T01:32:33;18.00;92.50
44431;DHT22;30135;47.866;-4.222;2023-06-22T01:35:01;17.90;92.50
44431;DHT22;30135;47.866;-4.222;2023-06-22T01:37:29;17.90;92.60
44431;DHT22;30135;47.866;-4.222;2023-06-22T01:39:58;17.90;92.50
44431;DHT22;30135;47.866;-4.222;2023-06-22T01:42:25;17.90;92.60
44431;DHT22;30135;47.866;-4.222;2023-06-22T01:44:53;17.80;92.60
44431;DHT22;30135;47.866;-4.222;2023-06-22T01:47:22;17.80;92.70
44431;DHT22;30135;47.866;-4.222;2023-06-22T01:49:49;17.80;92.70
44431;DHT22;30135;47.866;-4.222;2023-06-22T01:52:18;17.80;93.10
44431;DHT22;30135;47.866;-4.222;2023-06-22T01:54:44;17.80;92.80
44431;DHT22;30135;47.866;-4.222;2023-06-22T01:57:11;17.80;92.80
44431;DHT22;30135;47.866;-4.222;2023-06-22T02:02:20;17.70;92.80
44431;DHT22;30135;47.866;-4.222;2023-06-22T02:04:57;17.70;92.80
44431;DHT22;30135;47.866;-4.222;2023-06-22T02:07:31;17.70;92.90
44431;DHT22;30135;47.866;-4.222;2023-06-22T02:09:59;17.70;92.90
44431;DHT22;30135;47.866;-4.222;2023-06-22T02:12:28;17.70;93.00
44431;DHT22;30135;47.866;-4.222;2023-06-22T02:14:55;17.60;93.10
44431;DHT22;30135;47.866;-4.222;2023-06-22T02:17:22;17.70;93.10
44431;DHT22;30135;47.866;-4.222;2023-06-22T02:19:49;17.60;93.10
44431;DHT22;30135;47.866;-4.222;2023-06-22T02:22:15;17.60;93.20
44431;DHT22;30135;47.866;-4.222;2023-06-22T02:24:41;17.70;93.20
44431;DHT22;30135;47.866;-4.222;2023-06-22T02:27:10;17.60;93.20
44431;DHT22;30135;47.866;-4.222;2023-06-22T02:29:36;17.70;93.30
44431;DHT22;30135;47.866;-4.222;2023-06-22T02:32:04;17.60;93.20
44431;DHT22;30135;47.866;-4.222;2023-06-22T02:34:30;17.60;93.20
44431;DHT22;30135;47.866;-4.222;2023-06-22T02:36:59;17.60;93.20
44431;DHT22;30135;47.866;-4.222;2023-06-22T02:39:26;17.60;93.30
44431;DHT22;30135;47.866;-4.222;2023-06-22T02:41:53;17.50;93.30
44431;DHT22;30135;47.866;-4.222;2023-06-22T02:44:20;17.50;93.30
44431;DHT22;30135;47.866;-4.222;2023-06-22T02:46:47;17.50;93.30
44431;DHT22;30135;47.866;-4.222;2023-06-22T02:49:13;17.50;93.40
44431;DHT22;30135;47.866;-4.222;2023-06-22T02:51:45;17.50;93.40
44431;DHT22;30135;47.866;-4.222;2023-06-22T02:54:11;17.50;93.40
44431;DHT22;30135;47.866;-4.222;2023-06-22T02:56:37;17.50;93.40
44431;DHT22;30135;47.866;-4.222;2023-06-22T02:59:03;17.50;93.50
44431;DHT22;30135;47.866;-4.222;2023-06-22T03:01:29;17.40;93.50
44431;DHT22;30135;47.866;-4.222;2023-06-22T03:04:08;17.40;93.60
44431;DHT22;30135;47.866;-4.222;2023-06-22T03:06:35;17.40;93.60
44431;DHT22;30135;47.866;-4.222;2023-06-22T03:09:05;17.40;93.60
44431;DHT22;30135;47.866;-4.222;2023-06-22T03:11:31;17.40;93.60
44431;DHT22;30135;47.866;-4.222;2023-06-22T03:13:59;17.40;93.60
44431;DHT22;30135;47.866;-4.222;2023-06-22T03:16:25;17.40;93.70
44431;DHT22;30135;47.866;-4.222;2023-06-22T03:18:51;17.40;93.70
44431;DHT22;30135;47.866;-4.222;2023-06-22T03:24:41;17.40;93.70
44431;DHT22;30135;47.866;-4.222;2023-06-22T03:27:06;17.40;93.70
44431;DHT22;30135;47.866;-4.222;2023-06-22T03:29:32;17.40;93.70
44431;DHT22;30135;47.866;-4.222;2023-06-22T03:31:59;17.40;93.70
44431;DHT22;30135;47.866;-4.222;2023-06-22T03:34:28;17.40;93.80
44431;DHT22;30135;47.866;-4.222;2023-06-22T03:36:54;17.40;93.80
44431;DHT22;30135;47.866;-4.222;2023-06-22T03:39:20;17.40;93.80
44431;DHT22;30135;47.866;-4.222;2023-06-22T03:41:46;17.30;93.80
44431;DHT22;30135;47.866;-4.222;2023-06-22T03:44:11;17.40;94.20
44431;DHT22;30135;47.866;-4.222;2023-06-22T03:46:38;17.40;93.80
44431;DHT22;30135;47.866;-4.222;2023-06-22T03:49:04;17.30;93.80
44431;DHT22;30135;47.866;-4.222;2023-06-22T03:51:30;17.30;93.80
44431;DHT22;30135;47.866;-4.222;2023-06-22T03:53:57;17.30;93.80
44431;DHT22;30135;47.866;-4.222;2023-06-22T03:56:23;17.30;93.90
44431;DHT22;30135;47.866;-4.222;2023-06-22T03:58:50;17.30;93.90
44431;DHT22;30135;47.866;-4.222;2023-06-22T04:01:16;17.30;94.00
44431;DHT22;30135;47.866;-4.222;2023-06-22T04:03:42;17.30;94.00
44431;DHT22;30135;47.866;-4.222;2023-06-22T04:06:08;17.30;94.00
44431;DHT22;30135;47.866;-4.222;2023-06-22T04:08:34;17.30;94.00
44431;DHT22;30135;47.866;-4.222;2023-06-22T04:11:00;17.30;94.10
44431;DHT22;30135;47.866;-4.222;2023-06-22T04:13:27;17.30;94.00
44431;DHT22;30135;47.866;-4.222;2023-06-22T04:15:53;17.30;94.10
44431;DHT22;30135;47.866;-4.222;2023-06-22T04:18:19;17.30;94.10
44431;DHT22;30135;47.866;-4.222;2023-06-22T04:20:45;17.30;94.10
44431;DHT22;30135;47.866;-4.222;2023-06-22T04:23:12;17.30;94.10
44431;DHT22;30135;47.866;-4.222;2023-06-22T04:25:39;17.30;94.20
44431;DHT22;30135;47.866;-4.222;2023-06-22T04:28:05;17.30;94.20
44431;DHT22;30135;47.866;-4.222;2023-06-22T04:30:33;17.30;94.20
44431;DHT22;30135;47.866;-4.222;2023-06-22T04:32:59;17.30;94.30
44431;DHT22;30135;47.866;-4.222;2023-06-22T04:35:25;17.30;94.30
44431;DHT22;30135;47.866;-4.222;2023-06-22T04:37:55;17.30;94.30
44431;DHT22;30135;47.866;-4.222;2023-06-22T04:40:23;17.30;94.40
44431;DHT22;30135;47.866;-4.222;2023-06-22T04:42:49;17.30;94.40
44431;DHT22;30135;47.866;-4.222;2023-06-22T04:45:19;17.30;94.30
44431;DHT22;30135;47.866;-4.222;2023-06-22T04:47:46;17.20;94.30
44431;DHT22;30135;47.866;-4.222;2023-06-22T04:50:13;17.30;94.30
44431;DHT22;30135;47.866;-4.222;2023-06-22T04:52:39;17.30;94.40
44431;DHT22;30135;47.866;-4.222;2023-06-22T04:55:05;17.20;94.30
44431;DHT22;30135;47.866;-4.222;2023-06-22T04:57:32;17.20;94.30
44431;DHT22;30135;47.866;-4.222;2023-06-22T05:00:01;17.20;94.30
44431;DHT22;30135;47.866;-4.222;2023-06-22T05:02:40;17.20;94.30
44431;DHT22;30135;47.866;-4.222;2023-06-22T05:05:06;17.20;94.30
44431;DHT22;30135;47.866;-4.222;2023-06-22T05:07:36;17.20;94.30
44431;DHT22;30135;47.866;-4.222;2023-06-22T05:10:03;17.20;94.30
44431;DHT22;30135;47.866;-4.222;2023-06-22T05:12:30;17.20;94.30
44431;DHT22;30135;47.866;-4.222;2023-06-22T05:14:56;17.10;94.30
44431;DHT22;30135;47.866;-4.222;2023-06-22T05:17:22;17.20;94.30
44431;DHT22;30135;47.866;-4.222;2023-06-22T05:19:48;17.10;94.30
44431;DHT22;30135;47.866;-4.222;2023-06-22T05:22:15;17.10;94.30
44431;DHT22;30135;47.866;-4.222;2023-06-22T05:24:42;17.10;94.40
44431;DHT22;30135;47.866;-4.222;2023-06-22T05:27:09;17.10;94.50
44431;DHT22;30135;47.866;-4.222;2023-06-22T05:29:37;17.10;94.50
44431;DHT22;30135;47.866;-4.222;2023-06-22T05:32:03;17.10;94.60
44431;DHT22;30135;47.866;-4.222;2023-06-22T05:34:30;17.10;94.60
44431;DHT22;30135;47.866;-4.222;2023-06-22T05:36:56;17.10;94.60
44431;DHT22;30135;47.866;-4.222;2023-06-22T05:39:24;17.10;94.60
44431;DHT22;30135;47.866;-4.222;2023-06-22T05:41:51;17.10;94.70
44431;DHT22;30135;47.866;-4.222;2023-06-22T05:44:18;17.10;94.80
44431;DHT22;30135;47.866;-4.222;2023-06-22T05:46:45;17.10;94.80
44431;DHT22;30135;47.866;-4.222;2023-06-22T05:49:14;17.10;94.90
44431;DHT22;30135;47.866;-4.222;2023-06-22T05:51:41;17.10;94.90
44431;DHT22;30135;47.866;-4.222;2023-06-22T05:54:07;17.20;95.00
44431;DHT22;30135;47.866;-4.222;2023-06-22T05:56:34;17.20;95.00
44431;DHT22;30135;47.866;-4.222;2023-06-22T05:59:00;17.20;95.00
44431;DHT22;30135;47.866;-4.222;2023-06-22T06:01:26;17.20;95.00
44431;DHT22;30135;47.866;-4.222;2023-06-22T06:03:52;17.20;95.10
44431;DHT22;30135;47.866;-4.222;2023-06-22T06:06:18;17.20;95.10
44431;DHT22;30135;47.866;-4.222;2023-06-22T06:08:54;17.20;95.20
44431;DHT22;30135;47.866;-4.222;2023-06-22T06:11:21;17.20;95.20
44431;DHT22;30135;47.866;-4.222;2023-06-22T06:13:47;17.20;95.60
44431;DHT22;30135;47.866;-4.222;2023-06-22T06:16:13;17.20;95.30
44431;DHT22;30135;47.866;-4.222;2023-06-22T06:18:39;17.20;95.30
44431;DHT22;30135;47.866;-4.222;2023-06-22T06:21:05;17.20;95.40
44431;DHT22;30135;47.866;-4.222;2023-06-22T06:23:31;17.30;95.40
44431;DHT22;30135;47.866;-4.222;2023-06-22T06:25:57;17.30;95.40
44431;DHT22;30135;47.866;-4.222;2023-06-22T06:28:25;17.30;95.40
44431;DHT22;30135;47.866;-4.222;2023-06-22T06:30:51;17.30;95.50
44431;DHT22;30135;47.866;-4.222;2023-06-22T06:33:20;17.30;95.50
44431;DHT22;30135;47.866;-4.222;2023-06-22T06:35:46;17.30;95.50
44431;DHT22;30135;47.866;-4.222;2023-06-22T06:38:12;17.30;95.60
44431;DHT22;30135;47.866;-4.222;2023-06-22T06:40:38;17.30;95.60
44431;DHT22;30135;47.866;-4.222;2023-06-22T06:43:04;17.40;95.60
44431;DHT22;30135;47.866;-4.222;2023-06-22T06:45:30;17.40;95.60
44431;DHT22;30135;47.866;-4.222;2023-06-22T06:47:58;17.40;95.70
44431;DHT22;30135;47.866;-4.222;2023-06-22T06:50:24;17.40;95.70
44431;DHT22;30135;47.866;-4.222;2023-06-22T06:52:50;17.40;95.80
44431;DHT22;30135;47.866;-4.222;2023-06-22T06:55:16;17.40;95.70
44431;DHT22;30135;47.866;-4.222;2023-06-22T06:57:43;17.50;95.80
44431;DHT22;30135;47.866;-4.222;2023-06-22T07:00:11;17.50;95.80
44431;DHT22;30135;47.866;-4.222;2023-06-22T07:02:48;17.50;95.70
44431;DHT22;30135;47.866;-4.222;2023-06-22T07:05:14;17.50;95.70
44431;DHT22;30135;47.866;-4.222;2023-06-22T07:07:40;17.50;96.10
44431;DHT22;30135;47.866;-4.222;2023-06-22T07:10:08;17.60;95.80
44431;DHT22;30135;47.866;-4.222;2023-06-22T07:12:34;17.60;95.70
44431;DHT22;30135;47.866;-4.222;2023-06-22T07:15:05;17.60;95.70
44431;DHT22;30135;47.866;-4.222;2023-06-22T07:17:34;17.60;95.70
44431;DHT22;30135;47.866;-4.222;2023-06-22T07:20:01;17.60;95.70
44431;DHT22;30135;47.866;-4.222;2023-06-22T07:22:29;17.60;95.70
44431;DHT22;30135;47.866;-4.222;2023-06-22T07:24:54;17.60;95.70
44431;DHT22;30135;47.866;-4.222;2023-06-22T07:27:21;17.70;95.70
44431;DHT22;30135;47.866;-4.222;2023-06-22T07:29:47;17.70;95.70
44431;DHT22;30135;47.866;-4.222;2023-06-22T07:32:13;17.70;95.70
44431;DHT22;30135;47.866;-4.222;2023-06-22T07:34:39;17.70;95.60
44431;DHT22;30135;47.866;-4.222;2023-06-22T07:37:05;17.80;95.50
44431;DHT22;30135;47.866;-4.222;2023-06-22T07:39:31;17.80;95.60
44431;DHT22;30135;47.866;-4.222;2023-06-22T07:41:57;17.80;95.50
44431;DHT22;30135;47.866;-4.222;2023-06-22T07:44:24;17.80;95.50
44431;DHT22;30135;47.866;-4.222;2023-06-22T07:46:50;17.80;95.50
44431;DHT22;30135;47.866;-4.222;2023-06-22T07:49:17;17.90;95.50
44431;DHT22;30135;47.866;-4.222;2023-06-22T07:51:43;17.90;95.50
44431;DHT22;30135;47.866;-4.222;2023-06-22T07:54:09;18.00;95.40
44431;DHT22;30135;47.866;-4.222;2023-06-22T07:56:37;18.00;95.30
44431;DHT22;30135;47.866;-4.222;2023-06-22T07:59:03;18.00;95.40
44431;DHT22;30135;47.866;-4.222;2023-06-22T08:01:29;18.00;95.30
44431;DHT22;30135;47.866;-4.222;2023-06-22T08:03:55;18.10;95.30
44431;DHT22;30135;47.866;-4.222;2023-06-22T08:06:21;18.10;95.30
44431;DHT22;30135;47.866;-4.222;2023-06-22T08:08:47;18.10;95.30
44431;DHT22;30135;47.866;-4.222;2023-06-22T08:11:14;18.20;95.30
44431;DHT22;30135;47.866;-4.222;2023-06-22T08:13:41;18.20;95.20
44431;DHT22;30135;47.866;-4.222;2023-06-22T08:16:06;18.30;95.20
44431;DHT22;30135;47.866;-4.222;2023-06-22T08:18:33;18.30;95.20
44431;DHT22;30135;47.866;-4.222;2023-06-22T08:20:59;18.30;95.20
44431;DHT22;30135;47.866;-4.222;2023-06-22T08:23:25;18.30;95.20
44431;DHT22;30135;47.866;-4.222;2023-06-22T08:25:51;18.40;95.20
44431;DHT22;30135;47.866;-4.222;2023-06-22T08:28:17;18.40;95.30
44431;DHT22;30135;47.866;-4.222;2023-06-22T08:30:43;18.50;95.30
44431;DHT22;30135;47.866;-4.222;2023-06-22T08:33:09;18.50;95.10
44431;DHT22;30135;47.866;-4.222;2023-06-22T08:35:34;18.60;94.90
44431;DHT22;30135;47.866;-4.222;2023-06-22T08:38:00;18.60;94.90
44431;DHT22;30135;47.866;-4.222;2023-06-22T08:40:31;18.70;94.70
44431;DHT22;30135;47.866;-4.222;2023-06-22T08:42:58;18.70;94.60
44431;DHT22;30135;47.866;-4.222;2023-06-22T08:45:24;18.80;94.70
44431;DHT22;30135;47.866;-4.222;2023-06-22T08:47:50;18.80;94.50
44431;DHT22;30135;47.866;-4.222;2023-06-22T08:50:16;18.80;94.40
44431;DHT22;30135;47.866;-4.222;2023-06-22T08:52:42;18.90;94.40
44431;DHT22;30135;47.866;-4.222;2023-06-22T08:55:09;18.90;94.30
44431;DHT22;30135;47.866;-4.222;2023-06-22T08:57:36;18.90;94.20
44431;DHT22;30135;47.866;-4.222;2023-06-22T09:00:08;19.00;94.10
44431;DHT22;30135;47.866;-4.222;2023-06-22T09:02:42;19.00;93.90
44431;DHT22;30135;47.866;-4.222;2023-06-22T09:05:28;19.00;93.80
44431;DHT22;30135;47.866;-4.222;2023-06-22T09:07:56;19.10;93.80
44431;DHT22;30135;47.866;-4.222;2023-06-22T09:10:24;19.10;93.90
44431;DHT22;30135;47.866;-4.222;2023-06-22T09:12:50;19.20;94.00
44431;DHT22;30135;47.866;-4.222;2023-06-22T09:15:16;19.20;93.90
44431;DHT22;30135;47.866;-4.222;2023-06-22T09:17:42;19.30;93.80
44431;DHT22;30135;47.866;-4.222;2023-06-22T09:20:09;19.30;93.70
44431;DHT22;30135;47.866;-4.222;2023-06-22T09:22:36;19.40;93.60
44431;DHT22;30135;47.866;-4.222;2023-06-22T09:25:02;19.40;93.40
44431;DHT22;30135;47.866;-4.222;2023-06-22T09:27:29;19.50;93.30
44431;DHT22;30135;47.866;-4.222;2023-06-22T09:29:55;19.50;93.00
44431;DHT22;30135;47.866;-4.222;2023-06-22T09:32:21;19.60;92.80
44431;DHT22;30135;47.866;-4.222;2023-06-22T09:34:47;19.60;92.70
44431;DHT22;30135;47.866;-4.222;2023-06-22T09:37:13;19.60;92.50
44431;DHT22;30135;47.866;-4.222;2023-06-22T09:39:38;19.70;92.30
44431;DHT22;30135;47.866;-4.222;2023-06-22T09:42:05;19.70;92.00
44431;DHT22;30135;47.866;-4.222;2023-06-22T09:44:32;19.80;91.90
44431;DHT22;30135;47.866;-4.222;2023-06-22T09:46:58;19.90;91.70
44431;DHT22;30135;47.866;-4.222;2023-06-22T09:49:24;19.90;91.50
44431;DHT22;30135;47.866;-4.222;2023-06-22T09:51:50;19.90;91.20
44431;DHT22;30135;47.866;-4.222;2023-06-22T09:54:18;20.00;91.00
44431;DHT22;30135;47.866;-4.222;2023-06-22T09:56:44;20.10;90.90
44431;DHT22;30135;47.866;-4.222;2023-06-22T09:59:10;20.20;90.80
44431;DHT22;30135;47.866;-4.222;2023-06-22T10:01:36;20.20;90.50
44431;DHT22;30135;47.866;-4.222;2023-06-22T10:04:02;20.30;90.40
44431;DHT22;30135;47.866;-4.222;2023-06-22T10:06:28;20.40;90.30
44431;DHT22;30135;47.866;-4.222;2023-06-22T10:08:54;20.40;89.80
44431;DHT22;30135;47.866;-4.222;2023-06-22T10:11:20;20.40;89.20
44431;DHT22;30135;47.866;-4.222;2023-06-22T10:13:48;20.50;88.60
44431;DHT22;30135;47.866;-4.222;2023-06-22T10:16:14;20.50;88.00
44431;DHT22;30135;47.866;-4.222;2023-06-22T10:18:40;20.60;87.50
44431;DHT22;30135;47.866;-4.222;2023-06-22T10:21:07;20.60;86.70
44431;DHT22;30135;47.866;-4.222;2023-06-22T10:23:33;20.70;86.70
44431;DHT22;30135;47.866;-4.222;2023-06-22T10:25:59;20.80;86.20
44431;DHT22;30135;47.866;-4.222;2023-06-22T10:28:24;20.80;85.60
44431;DHT22;30135;47.866;-4.222;2023-06-22T10:30:50;20.90;84.90
44431;DHT22;30135;47.866;-4.222;2023-06-22T10:33:16;21.00;84.70
44431;DHT22;30135;47.866;-4.222;2023-06-22T10:35:43;21.00;84.30
44431;DHT22;30135;47.866;-4.222;2023-06-22T10:38:09;21.10;84.20
44431;DHT22;30135;47.866;-4.222;2023-06-22T10:40:35;21.10;83.10
44431;DHT22;30135;47.866;-4.222;2023-06-22T10:43:01;21.20;82.40
44431;DHT22;30135;47.866;-4.222;2023-06-22T10:45:27;21.20;82.00
44431;DHT22;30135;47.866;-4.222;2023-06-22T10:47:53;21.30;81.50
44431;DHT22;30135;47.866;-4.222;2023-06-22T10:50:19;21.30;81.40
44431;DHT22;30135;47.866;-4.222;2023-06-22T10:52:45;21.40;81.60
44431;DHT22;30135;47.866;-4.222;2023-06-22T10:55:11;21.50;81.60
44431;DHT22;30135;47.866;-4.222;2023-06-22T10:57:38;21.60;81.10
44431;DHT22;30135;47.866;-4.222;2023-06-22T11:00:07;21.60;80.90
44431;DHT22;30135;47.866;-4.222;2023-06-22T11:02:34;21.70;80.40
44431;DHT22;30135;47.866;-4.222;2023-06-22T11:05:00;21.70;79.80
44431;DHT22;30135;47.866;-4.222;2023-06-22T11:07:27;21.80;79.60
44431;DHT22;30135;47.866;-4.222;2023-06-22T11:09:54;21.80;79.50
44431;DHT22;30135;47.866;-4.222;2023-06-22T11:12:20;21.90;78.80
44431;DHT22;30135;47.866;-4.222;2023-06-22T11:14:46;21.90;78.40
44431;DHT22;30135;47.866;-4.222;2023-06-22T11:17:12;21.90;78.00
44431;DHT22;30135;47.866;-4.222;2023-06-22T11:19:38;22.00;77.40
44431;DHT22;30135;47.866;-4.222;2023-06-22T11:22:05;22.10;77.00
44431;DHT22;30135;47.866;-4.222;2023-06-22T11:24:31;22.20;76.90
44431;DHT22;30135;47.866;-4.222;2023-06-22T11:26:58;22.30;76.90
44431;DHT22;30135;47.866;-4.222;2023-06-22T11:29:24;22.40;76.90
44431;DHT22;30135;47.866;-4.222;2023-06-22T11:31:50;22.40;76.10
44431;DHT22;30135;47.866;-4.222;2023-06-22T11:34:16;22.50;75.70
44431;DHT22;30135;47.866;-4.222;2023-06-22T11:36:41;22.50;75.20
44431;DHT22;30135;47.866;-4.222;2023-06-22T11:39:08;22.60;75.10
44431;DHT22;30135;47.866;-4.222;2023-06-22T11:41:35;22.60;74.50
44431;DHT22;30135;47.866;-4.222;2023-06-22T11:44:01;22.60;74.40
44431;DHT22;30135;47.866;-4.222;2023-06-22T11:46:29;22.70;74.10
44431;DHT22;30135;47.866;-4.222;2023-06-22T11:48:57;22.70;73.80
44431;DHT22;30135;47.866;-4.222;2023-06-22T11:51:23;22.80;73.60
44431;DHT22;30135;47.866;-4.222;2023-06-22T11:53:49;22.80;73.30
44431;DHT22;30135;47.866;-4.222;2023-06-22T11:56:15;22.90;72.90
44431;DHT22;30135;47.866;-4.222;2023-06-22T11:58:41;22.90;72.40
44431;DHT22;30135;47.866;-4.222;2023-06-22T12:01:07;23.00;72.30
44431;DHT22;30135;47.866;-4.222;2023-06-22T12:03:33;23.00;71.70
44431;DHT22;30135;47.866;-4.222;2023-06-22T12:05:59;23.10;71.40
44431;DHT22;30135;47.866;-4.222;2023-06-22T12:08:25;23.20;71.40
44431;DHT22;30135;47.866;-4.222;2023-06-22T12:10:51;23.30;71.00
44431;DHT22;30135;47.866;-4.222;2023-06-22T12:13:19;23.30;70.70
44431;DHT22;30135;47.866;-4.222;2023-06-22T12:15:45;23.40;70.40
44431;DHT22;30135;47.866;-4.222;2023-06-22T12:18:11;23.50;69.90
44431;DHT22;30135;47.866;-4.222;2023-06-22T12:20:40;23.50;69.40
44431;DHT22;30135;47.866;-4.222;2023-06-22T12:23:06;23.50;69.00
44431;DHT22;30135;47.866;-4.222;2023-06-22T12:25:32;23.50;69.00
44431;DHT22;30135;47.866;-4.222;2023-06-22T12:27:57;23.60;69.10
44431;DHT22;30135;47.866;-4.222;2023-06-22T12:30:23;23.60;69.20
44431;DHT22;30135;47.866;-4.222;2023-06-22T12:32:49;23.70;69.30
44431;DHT22;30135;47.866;-4.222;2023-06-22T12:35:17;23.70;68.90
44431;DHT22;30135;47.866;-4.222;2023-06-22T12:37:43;23.70;68.70
44431;DHT22;30135;47.866;-4.222;2023-06-22T12:40:09;23.80;68.30
44431;DHT22;30135;47.866;-4.222;2023-06-22T12:42:36;23.80;68.00
44431;DHT22;30135;47.866;-4.222;2023-06-22T12:45:02;23.80;67.90
44431;DHT22;30135;47.866;-4.222;2023-06-22T12:47:28;23.90;67.90
44431;DHT22;30135;47.866;-4.222;2023-06-22T12:49:54;23.90;67.60
44431;DHT22;30135;47.866;-4.222;2023-06-22T12:52:20;23.80;67.50
44431;DHT22;30135;47.866;-4.222;2023-06-22T12:54:46;23.80;67.10
44431;DHT22;30135;47.866;-4.222;2023-06-22T12:57:12;23.70;67.40
44431;DHT22;30135;47.866;-4.222;2023-06-22T12:59:38;23.70;67.70
44431;DHT22;30135;47.866;-4.222;2023-06-22T13:02:04;23.70;67.50
44431;DHT22;30135;47.866;-4.222;2023-06-22T13:04:35;23.70;67.10
44431;DHT22;30135;47.866;-4.222;2023-06-22T13:07:01;23.80;67.00
44431;DHT22;30135;47.866;-4.222;2023-06-22T13:09:27;23.70;66.80
44431;DHT22;30135;47.866;-4.222;2023-06-22T13:11:53;23.70;66.80
44431;DHT22;30135;47.866;-4.222;2023-06-22T13:14:19;23.70;67.30
44431;DHT22;30135;47.866;-4.222;2023-06-22T13:16:45;23.70;67.60
44431;DHT22;30135;47.866;-4.222;2023-06-22T13:19:11;23.80;68.00
44431;DHT22;30135;47.866;-4.222;2023-06-22T13:21:37;23.80;68.00
44431;DHT22;30135;47.866;-4.222;2023-06-22T13:24:04;23.80;68.60
44431;DHT22;30135;47.866;-4.222;2023-06-22T13:26:31;23.90;68.80
44431;DHT22;30135;47.866;-4.222;2023-06-22T13:28:58;23.90;69.20
44431;DHT22;30135;47.866;-4.222;2023-06-22T13:31:24;24.00;69.40
44431;DHT22;30135;47.866;-4.222;2023-06-22T13:33:50;24.00;69.40
44431;DHT22;30135;47.866;-4.222;2023-06-22T13:36:18;24.10;69.70
44431;DHT22;30135;47.866;-4.222;2023-06-22T13:38:45;24.20;69.80
44431;DHT22;30135;47.866;-4.222;2023-06-22T13:41:11;24.20;69.80
44431;DHT22;30135;47.866;-4.222;2023-06-22T13:43:37;24.30;70.70
44431;DHT22;30135;47.866;-4.222;2023-06-22T13:46:03;24.30;69.70
44431;DHT22;30135;47.866;-4.222;2023-06-22T13:48:28;24.40;69.60
44431;DHT22;30135;47.866;-4.222;2023-06-22T13:50:54;24.40;69.60
44431;DHT22;30135;47.866;-4.222;2023-06-22T13:53:20;24.50;69.60
44431;DHT22;30135;47.866;-4.222;2023-06-22T13:55:46;24.50;69.30
44431;DHT22;30135;47.866;-4.222;2023-06-22T13:58:13;24.60;69.20
44431;DHT22;30135;47.866;-4.222;2023-06-22T14:00:39;24.60;69.10
44431;DHT22;30135;47.866;-4.222;2023-06-22T14:03:08;24.60;69.00
44431;DHT22;30135;47.866;-4.222;2023-06-22T14:05:34;24.60;69.10
44431;DHT22;30135;47.866;-4.222;2023-06-22T14:08:00;24.60;69.20
44431;DHT22;30135;47.866;-4.222;2023-06-22T14:10:26;24.60;69.30
44431;DHT22;30135;47.866;-4.222;2023-06-22T14:12:52;24.60;69.20
44431;DHT22;30135;47.866;-4.222;2023-06-22T14:15:18;24.60;69.40
44431;DHT22;30135;47.866;-4.222;2023-06-22T14:17:45;24.60;69.50
44431;DHT22;30135;47.866;-4.222;2023-06-22T14:20:11;24.60;69.50
44431;DHT22;30135;47.866;-4.222;2023-06-22T14:22:37;24.60;69.30
44431;DHT22;30135;47.866;-4.222;2023-06-22T14:25:05;24.50;70.10
44431;DHT22;30135;47.866;-4.222;2023-06-22T14:27:31;24.50;69.30
44431;DHT22;30135;47.866;-4.222;2023-06-22T14:29:57;24.50;69.30
44431;DHT22;30135;47.866;-4.222;2023-06-22T14:32:23;24.50;69.50
44431;DHT22;30135;47.866;-4.222;2023-06-22T14:34:49;24.50;69.70
44431;DHT22;30135;47.866;-4.222;2023-06-22T14:37:16;24.50;69.50
44431;DHT22;30135;47.866;-4.222;2023-06-22T14:39:42;24.50;69.40
44431;DHT22;30135;47.866;-4.222;2023-06-22T14:42:09;24.50;69.60
44431;DHT22;30135;47.866;-4.222;2023-06-22T14:44:35;24.60;69.70
44431;DHT22;30135;47.866;-4.222;2023-06-22T14:47:01;24.50;69.50
44431;DHT22;30135;47.866;-4.222;2023-06-22T14:49:27;24.50;69.80
44431;DHT22;30135;47.866;-4.222;2023-06-22T14:51:53;24.50;69.80
44431;DHT22;30135;47.866;-4.222;2023-06-22T14:54:19;24.60;69.80
44431;DHT22;30135;47.866;-4.222;2023-06-22T14:56:45;24.50;69.70
44431;DHT22;30135;47.866;-4.222;2023-06-22T14:59:12;24.50;69.90
44431;DHT22;30135;47.866;-4.222;2023-06-22T15:01:38;24.60;70.00
44431;DHT22;30135;47.866;-4.222;2023-06-22T15:04:04;24.50;69.90
44431;DHT22;30135;47.866;-4.222;2023-06-22T15:06:30;24.50;69.90
44431;DHT22;30135;47.866;-4.222;2023-06-22T15:08:57;24.50;70.00
44431;DHT22;30135;47.866;-4.222;2023-06-22T15:11:23;24.50;70.90
44431;DHT22;30135;47.866;-4.222;2023-06-22T15:13:48;24.50;70.10
44431;DHT22;30135;47.866;-4.222;2023-06-22T15:16:14;24.50;70.10
44431;DHT22;30135;47.866;-4.222;2023-06-22T15:18:41;24.60;70.10
44431;DHT22;30135;47.866;-4.222;2023-06-22T15:21:07;24.60;70.30
44431;DHT22;30135;47.866;-4.222;2023-06-22T15:23:34;24.60;70.10
44431;DHT22;30135;47.866;-4.222;2023-06-22T15:26:02;24.60;70.00